Kimberley, Canada
Current Conditions -  °F | °C
As of 5:00 AM on Monday 26 Jan 2015 (Local Time) from CYXC Reporting Station
Broken Clouds Broken Clouds  
Wind Chill: 34°   Ceiling: 15000
Heat Index: 34°   Visibility: 25mi
Dew Point: 30°   Wind: 3mph
Humidity: 87%   Direction: 220°SW
Pressure: 30.11"   Gusts: NA
Location:  49.68°N, 115.98°W
Report Text: CYXC 261200Z 22003KT 170V250 25SM BKN150 BKN210 01/M01 A3011 RMK AC5CI2 SLP218
Loading
Personal Weather Stations






























Interactive Weather Map New forecast layout! Learn more

10-Day Weather Forecast

Advertisements
Track Severe Weather on mobile